sensor_id;sensor_type;location;lat;lon;timestamp;P1;durP1;ratioP1;P2;durP2;ratioP2
40955;SDS011;26687;48.254;11.454;2023-03-11T00:00:58;0.40;;;0.30;;
40955;SDS011;26687;48.254;11.454;2023-03-11T00:03:58;0.30;;;0.20;;
40955;SDS011;26687;48.254;11.454;2023-03-11T00:06:59;0.30;;;0.20;;
40955;SDS011;26687;48.254;11.454;2023-03-11T00:09:59;0.28;;;0.20;;
40955;SDS011;26687;48.254;11.454;2023-03-11T00:13:00;0.35;;;0.35;;
40955;SDS011;26687;48.254;11.454;2023-03-11T00:16:00;0.20;;;0.20;;
40955;SDS011;26687;48.254;11.454;2023-03-11T00:19:00;0.27;;;0.20;;
40955;SDS011;26687;48.254;11.454;2023-03-11T00:22:01;0.22;;;0.20;;
40955;SDS011;26687;48.254;11.454;2023-03-11T00:25:01;0.10;;;0.10;;
40955;SDS011;26687;48.254;11.454;2023-03-11T00:28:01;0.77;;;0.20;;
40955;SDS011;26687;48.254;11.454;2023-03-11T00:31:01;0.10;;;0.10;;
40955;SDS011;26687;48.254;11.454;2023-03-11T00:34:01;0.57;;;0.30;;
40955;SDS011;26687;48.254;11.454;2023-03-11T00:37:02;0.20;;;0.17;;
40955;SDS011;26687;48.254;11.454;2023-03-11T00:40:02;0.93;;;0.40;;
40955;SDS011;26687;48.254;11.454;2023-03-11T00:43:07;0.50;;;0.30;;
40955;SDS011;26687;48.254;11.454;2023-03-11T00:46:08;0.50;;;0.27;;
40955;SDS011;26687;48.254;11.454;2023-03-11T00:49:08;0.50;;;0.20;;
40955;SDS011;26687;48.254;11.454;2023-03-11T00:52:08;0.20;;;0.20;;
40955;SDS011;26687;48.254;11.454;2023-03-11T00:55:09;0.30;;;0.20;;
40955;SDS011;26687;48.254;11.454;2023-03-11T00:58:09;0.38;;;0.20;;
40955;SDS011;26687;48.254;11.454;2023-03-11T01:01:12;0.30;;;0.30;;
40955;SDS011;26687;48.254;11.454;2023-03-11T01:04:12;0.37;;;0.20;;
40955;SDS011;26687;48.254;11.454;2023-03-11T01:07:12;0.20;;;0.20;;
40955;SDS011;26687;48.254;11.454;2023-03-11T01:10:13;0.20;;;0.20;;
40955;SDS011;26687;48.254;11.454;2023-03-11T01:13:13;0.20;;;0.20;;
40955;SDS011;26687;48.254;11.454;2023-03-11T01:16:13;0.20;;;0.20;;
40955;SDS011;26687;48.254;11.454;2023-03-11T01:19:14;0.20;;;0.20;;
40955;SDS011;26687;48.254;11.454;2023-03-11T01:22:14;0.30;;;0.30;;
40955;SDS011;26687;48.254;11.454;2023-03-11T01:25:15;0.25;;;0.10;;
40955;SDS011;26687;48.254;11.454;2023-03-11T01:28:15;0.40;;;0.30;;
40955;SDS011;26687;48.254;11.454;2023-03-11T01:31:16;0.20;;;0.20;;
40955;SDS011;26687;48.254;11.454;2023-03-11T01:34:16;0.15;;;0.13;;
40955;SDS011;26687;48.254;11.454;2023-03-11T01:37:16;1.00;;;0.30;;
40955;SDS011;26687;48.254;11.454;2023-03-11T01:40:28;0.30;;;0.30;;
40955;SDS011;26687;48.254;11.454;2023-03-11T01:49:51;0.30;;;0.28;;
40955;SDS011;26687;48.254;11.454;2023-03-11T01:52:51;0.30;;;0.20;;
40955;SDS011;26687;48.254;11.454;2023-03-11T01:55:52;0.15;;;0.15;;
40955;SDS011;26687;48.254;11.454;2023-03-11T01:58:52;0.30;;;0.20;;
40955;SDS011;26687;48.254;11.454;2023-03-11T02:02:07;0.10;;;0.10;;
40955;SDS011;26687;48.254;11.454;2023-03-11T02:05:10;0.20;;;0.20;;
40955;SDS011;26687;48.254;11.454;2023-03-11T02:08:10;0.20;;;0.20;;
40955;SDS011;26687;48.254;11.454;2023-03-11T02:11:12;0.28;;;0.15;;
40955;SDS011;26687;48.254;11.454;2023-03-11T02:14:14;0.20;;;0.17;;
40955;SDS011;26687;48.254;11.454;2023-03-11T02:17:15;0.47;;;0.30;;
40955;SDS011;26687;48.254;11.454;2023-03-11T02:20:20;0.20;;;0.20;;
40955;SDS011;26687;48.254;11.454;2023-03-11T02:23:22;0.15;;;0.15;;
40955;SDS011;26687;48.254;11.454;2023-03-11T02:29:25;0.40;;;0.30;;
40955;SDS011;26687;48.254;11.454;2023-03-11T02:32:26;0.20;;;0.20;;
40955;SDS011;26687;48.254;11.454;2023-03-11T02:35:26;0.30;;;0.30;;
40955;SDS011;26687;48.254;11.454;2023-03-11T02:38:27;0.30;;;0.27;;
40955;SDS011;26687;48.254;11.454;2023-03-11T02:41:27;0.40;;;0.20;;
40955;SDS011;26687;48.254;11.454;2023-03-11T02:44:27;1.05;;;0.30;;
40955;SDS011;26687;48.254;11.454;2023-03-11T02:47:28;0.22;;;0.22;;
40955;SDS011;26687;48.254;11.454;2023-03-11T02:50:28;0.60;;;0.57;;
40955;SDS011;26687;48.254;11.454;2023-03-11T02:53:29;0.43;;;0.30;;
40955;SDS011;26687;48.254;11.454;2023-03-11T02:56:30;0.25;;;0.20;;
40955;SDS011;26687;48.254;11.454;2023-03-11T02:59:31;0.30;;;0.30;;
40955;SDS011;26687;48.254;11.454;2023-03-11T03:02:31;0.32;;;0.20;;
40955;SDS011;26687;48.254;11.454;2023-03-11T03:05:31;0.30;;;0.30;;
40955;SDS011;26687;48.254;11.454;2023-03-11T03:08:31;0.40;;;0.20;;
40955;SDS011;26687;48.254;11.454;2023-03-11T03:11:31;0.25;;;0.17;;
40955;SDS011;26687;48.254;11.454;2023-03-11T03:14:32;0.57;;;0.30;;
40955;SDS011;26687;48.254;11.454;2023-03-11T03:17:32;0.20;;;0.20;;
40955;SDS011;26687;48.254;11.454;2023-03-11T03:20:32;0.60;;;0.40;;
40955;SDS011;26687;48.254;11.454;2023-03-11T03:23:32;0.93;;;0.30;;
40955;SDS011;26687;48.254;11.454;2023-03-11T03:26:34;0.32;;;0.30;;
40955;SDS011;26687;48.254;11.454;2023-03-11T03:29:34;0.17;;;0.13;;
40955;SDS011;26687;48.254;11.454;2023-03-11T03:32:35;0.25;;;0.25;;
40955;SDS011;26687;48.254;11.454;2023-03-11T03:35:39;0.57;;;0.30;;
40955;SDS011;26687;48.254;11.454;2023-03-11T03:38:39;0.20;;;0.20;;
40955;SDS011;26687;48.254;11.454;2023-03-11T03:41:40;0.77;;;0.35;;
40955;SDS011;26687;48.254;11.454;2023-03-11T03:44:40;0.40;;;0.30;;
40955;SDS011;26687;48.254;11.454;2023-03-11T03:47:40;0.37;;;0.37;;
40955;SDS011;26687;48.254;11.454;2023-03-11T03:50:41;0.40;;;0.38;;
40955;SDS011;26687;48.254;11.454;2023-03-11T03:53:41;0.30;;;0.30;;
40955;SDS011;26687;48.254;11.454;2023-03-11T03:56:41;0.22;;;0.20;;
40955;SDS011;26687;48.254;11.454;2023-03-11T03:59:41;0.40;;;0.30;;
40955;SDS011;26687;48.254;11.454;2023-03-11T04:02:42;0.50;;;0.27;;
40955;SDS011;26687;48.254;11.454;2023-03-11T04:05:42;0.20;;;0.20;;
40955;SDS011;26687;48.254;11.454;2023-03-11T04:08:42;0.30;;;0.30;;
40955;SDS011;26687;48.254;11.454;2023-03-11T04:11:42;0.30;;;0.30;;
40955;SDS011;26687;48.254;11.454;2023-03-11T04:14:43;0.30;;;0.30;;
40955;SDS011;26687;48.254;11.454;2023-03-11T04:17:43;0.73;;;0.43;;
40955;SDS011;26687;48.254;11.454;2023-03-11T04:20:43;0.77;;;0.60;;
40955;SDS011;26687;48.254;11.454;2023-03-11T04:23:43;0.83;;;0.50;;
40955;SDS011;26687;48.254;11.454;2023-03-11T04:26:43;0.30;;;0.30;;
40955;SDS011;26687;48.254;11.454;2023-03-11T04:29:44;0.50;;;0.40;;
40955;SDS011;26687;48.254;11.454;2023-03-11T04:32:44;0.63;;;0.43;;
40955;SDS011;26687;48.254;11.454;2023-03-11T04:35:44;0.55;;;0.50;;
40955;SDS011;26687;48.254;11.454;2023-03-11T04:38:44;1.02;;;0.65;;
40955;SDS011;26687;48.254;11.454;2023-03-11T04:41:45;0.50;;;0.40;;
40955;SDS011;26687;48.254;11.454;2023-03-11T04:44:45;0.63;;;0.60;;
40955;SDS011;26687;48.254;11.454;2023-03-11T04:47:46;0.68;;;0.50;;
40955;SDS011;26687;48.254;11.454;2023-03-11T04:50:46;0.80;;;0.60;;
40955;SDS011;26687;48.254;11.454;2023-03-11T04:53:46;0.50;;;0.50;;
40955;SDS011;26687;48.254;11.454;2023-03-11T04:56:47;1.20;;;0.43;;
40955;SDS011;26687;48.254;11.454;2023-03-11T04:59:47;0.50;;;0.40;;
40955;SDS011;26687;48.254;11.454;2023-03-11T05:02:47;0.47;;;0.20;;
40955;SDS011;26687;48.254;11.454;2023-03-11T05:05:47;0.30;;;0.30;;
40955;SDS011;26687;48.254;11.454;2023-03-11T05:08:47;0.40;;;0.30;;
40955;SDS011;26687;48.254;11.454;2023-03-11T05:11:47;0.63;;;0.30;;
40955;SDS011;26687;48.254;11.454;2023-03-11T05:14:47;0.47;;;0.28;;
40955;SDS011;26687;48.254;11.454;2023-03-11T05:17:48;0.30;;;0.20;;
40955;SDS011;26687;48.254;11.454;2023-03-11T05:20:48;0.40;;;0.30;;
40955;SDS011;26687;48.254;11.454;2023-03-11T05:23:48;0.40;;;0.22;;
40955;SDS011;26687;48.254;11.454;2023-03-11T05:26:48;0.40;;;0.20;;
40955;SDS011;26687;48.254;11.454;2023-03-11T05:29:48;0.47;;;0.30;;
40955;SDS011;26687;48.254;11.454;2023-03-11T05:32:48;0.65;;;0.30;;
40955;SDS011;26687;48.254;11.454;2023-03-11T05:35:49;0.85;;;0.30;;
40955;SDS011;26687;48.254;11.454;2023-03-11T05:38:50;0.95;;;0.50;;
40955;SDS011;26687;48.254;11.454;2023-03-11T05:41:52;0.47;;;0.30;;
40955;SDS011;26687;48.254;11.454;2023-03-11T05:44:52;1.40;;;0.43;;
40955;SDS011;26687;48.254;11.454;2023-03-11T05:47:52;0.63;;;0.38;;
40955;SDS011;26687;48.254;11.454;2023-03-11T05:50:52;0.65;;;0.40;;
40955;SDS011;26687;48.254;11.454;2023-03-11T05:53:52;0.40;;;0.38;;
40955;SDS011;26687;48.254;11.454;2023-03-11T05:56:53;0.85;;;0.60;;
40955;SDS011;26687;48.254;11.454;2023-03-11T05:59:53;1.17;;;0.30;;
40955;SDS011;26687;48.254;11.454;2023-03-11T06:02:53;0.70;;;0.40;;
40955;SDS011;26687;48.254;11.454;2023-03-11T06:05:53;0.73;;;0.47;;
40955;SDS011;26687;48.254;11.454;2023-03-11T06:08:54;0.50;;;0.30;;
40955;SDS011;26687;48.254;11.454;2023-03-11T06:11:54;0.27;;;0.20;;
40955;SDS011;26687;48.254;11.454;2023-03-11T06:14:55;0.65;;;0.30;;
40955;SDS011;26687;48.254;11.454;2023-03-11T06:17:56;1.27;;;0.50;;
40955;SDS011;26687;48.254;11.454;2023-03-11T06:20:56;0.40;;;0.40;;
40955;SDS011;26687;48.254;11.454;2023-03-11T06:23:57;2.95;;;0.68;;
40955;SDS011;26687;48.254;11.454;2023-03-11T06:26:57;1.33;;;0.50;;
40955;SDS011;26687;48.254;11.454;2023-03-11T06:29:57;0.65;;;0.47;;
40955;SDS011;26687;48.254;11.454;2023-03-11T06:32:57;0.60;;;0.43;;
40955;SDS011;26687;48.254;11.454;2023-03-11T06:35:58;0.82;;;0.40;;
40955;SDS011;26687;48.254;11.454;2023-03-11T06:38:58;1.50;;;0.70;;
40955;SDS011;26687;48.254;11.454;2023-03-11T06:41:58;0.60;;;0.50;;
40955;SDS011;26687;48.254;11.454;2023-03-11T06:44:59;0.57;;;0.43;;
40955;SDS011;26687;48.254;11.454;2023-03-11T06:47:59;1.00;;;0.47;;
40955;SDS011;26687;48.254;11.454;2023-03-11T06:50:59;1.17;;;0.60;;
40955;SDS011;26687;48.254;11.454;2023-03-11T06:53:59;0.52;;;0.40;;
40955;SDS011;26687;48.254;11.454;2023-03-11T06:57:00;0.50;;;0.40;;
40955;SDS011;26687;48.254;11.454;2023-03-11T07:00:00;1.20;;;0.40;;
40955;SDS011;26687;48.254;11.454;2023-03-11T07:03:00;0.95;;;0.55;;
40955;SDS011;26687;48.254;11.454;2023-03-11T07:06:00;1.92;;;0.50;;
40955;SDS011;26687;48.254;11.454;2023-03-11T07:09:00;0.53;;;0.50;;
40955;SDS011;26687;48.254;11.454;2023-03-11T07:12:01;0.60;;;0.40;;
40955;SDS011;26687;48.254;11.454;2023-03-11T07:15:01;1.63;;;0.52;;
40955;SDS011;26687;48.254;11.454;2023-03-11T07:18:01;0.97;;;0.50;;
40955;SDS011;26687;48.254;11.454;2023-03-11T07:21:02;1.02;;;0.60;;
40955;SDS011;26687;48.254;11.454;2023-03-11T07:24:02;0.60;;;0.25;;
40955;SDS011;26687;48.254;11.454;2023-03-11T07:27:03;0.98;;;0.40;;
40955;SDS011;26687;48.254;11.454;2023-03-11T07:30:03;1.17;;;0.40;;
40955;SDS011;26687;48.254;11.454;2023-03-11T07:33:03;1.10;;;0.50;;
40955;SDS011;26687;48.254;11.454;2023-03-11T07:36:07;1.08;;;0.40;;
40955;SDS011;26687;48.254;11.454;2023-03-11T07:39:09;0.75;;;0.30;;
40955;SDS011;26687;48.254;11.454;2023-03-11T07:42:11;0.35;;;0.20;;
40955;SDS011;26687;48.254;11.454;2023-03-11T07:45:11;0.73;;;0.30;;
40955;SDS011;26687;48.254;11.454;2023-03-11T07:48:11;1.45;;;0.52;;
40955;SDS011;26687;48.254;11.454;2023-03-11T07:51:13;1.33;;;0.33;;
40955;SDS011;26687;48.254;11.454;2023-03-11T07:54:13;0.50;;;0.30;;
40955;SDS011;26687;48.254;11.454;2023-03-11T07:57:13;2.20;;;0.82;;
40955;SDS011;26687;48.254;11.454;2023-03-11T08:00:16;1.48;;;0.60;;
40955;SDS011;26687;48.254;11.454;2023-03-11T08:03:16;0.88;;;0.43;;
40955;SDS011;26687;48.254;11.454;2023-03-11T08:09:17;0.63;;;0.40;;
40955;SDS011;26687;48.254;11.454;2023-03-11T08:12:17;0.95;;;0.35;;
40955;SDS011;26687;48.254;11.454;2023-03-11T08:15:17;0.67;;;0.37;;
40955;SDS011;26687;48.254;11.454;2023-03-11T08:18:17;1.10;;;0.37;;
40955;SDS011;26687;48.254;11.454;2023-03-11T08:21:22;1.90;;;0.70;;
40955;SDS011;26687;48.254;11.454;2023-03-11T08:24:23;1.58;;;0.40;;
40955;SDS011;26687;48.254;11.454;2023-03-11T08:27:23;2.33;;;0.60;;
40955;SDS011;26687;48.254;11.454;2023-03-11T08:30:23;1.40;;;0.47;;
40955;SDS011;26687;48.254;11.454;2023-03-11T08:33:23;0.63;;;0.43;;
40955;SDS011;26687;48.254;11.454;2023-03-11T08:36:23;1.92;;;0.60;;
40955;SDS011;26687;48.254;11.454;2023-03-11T08:39:24;1.20;;;0.60;;
40955;SDS011;26687;48.254;11.454;2023-03-11T08:42:24;1.63;;;0.60;;
40955;SDS011;26687;48.254;11.454;2023-03-11T08:45:24;0.93;;;0.57;;
40955;SDS011;26687;48.254;11.454;2023-03-11T08:48:24;0.77;;;0.50;;
40955;SDS011;26687;48.254;11.454;2023-03-11T08:51:25;0.97;;;0.47;;
40955;SDS011;26687;48.254;11.454;2023-03-11T08:54:25;0.68;;;0.47;;
40955;SDS011;26687;48.254;11.454;2023-03-11T08:57:25;1.17;;;0.60;;
40955;SDS011;26687;48.254;11.454;2023-03-11T09:00:25;0.77;;;0.40;;
40955;SDS011;26687;48.254;11.454;2023-03-11T09:03:25;0.57;;;0.30;;
40955;SDS011;26687;48.254;11.454;2023-03-11T09:06:26;0.53;;;0.20;;
40955;SDS011;26687;48.254;11.454;2023-03-11T09:09:29;0.30;;;0.20;;
40955;SDS011;26687;48.254;11.454;2023-03-11T09:12:29;2.00;;;0.40;;
40955;SDS011;26687;48.254;11.454;2023-03-11T09:15:29;0.75;;;0.50;;
40955;SDS011;26687;48.254;11.454;2023-03-11T09:18:29;0.73;;;0.43;;
40955;SDS011;26687;48.254;11.454;2023-03-11T09:21:29;0.82;;;0.30;;
40955;SDS011;26687;48.254;11.454;2023-03-11T09:24:33;1.50;;;0.40;;
40955;SDS011;26687;48.254;11.454;2023-03-11T09:27:33;2.17;;;0.63;;
40955;SDS011;26687;48.254;11.454;2023-03-11T09:30:34;0.80;;;0.55;;
40955;SDS011;26687;48.254;11.454;2023-03-11T09:33:35;0.70;;;0.43;;
40955;SDS011;26687;48.254;11.454;2023-03-11T09:36:36;1.23;;;0.35;;
40955;SDS011;26687;48.254;11.454;2023-03-11T09:39:36;0.60;;;0.30;;
40955;SDS011;26687;48.254;11.454;2023-03-11T09:42:39;0.70;;;0.20;;
40955;SDS011;26687;48.254;11.454;2023-03-11T09:45:43;1.10;;;0.60;;
40955;SDS011;26687;48.254;11.454;2023-03-11T09:48:48;1.42;;;0.30;;
40955;SDS011;26687;48.254;11.454;2023-03-11T09:55:23;1.38;;;0.70;;
40955;SDS011;26687;48.254;11.454;2023-03-11T09:58:39;1.40;;;0.47;;
40955;SDS011;26687;48.254;11.454;2023-03-11T10:01:41;1.40;;;0.60;;
40955;SDS011;26687;48.254;11.454;2023-03-11T10:04:44;1.50;;;0.50;;
40955;SDS011;26687;48.254;11.454;2023-03-11T10:07:46;1.42;;;0.60;;
40955;SDS011;26687;48.254;11.454;2023-03-11T10:10:53;1.58;;;0.70;;
40955;SDS011;26687;48.254;11.454;2023-03-11T10:14:06;1.38;;;0.50;;
40955;SDS011;26687;48.254;11.454;2023-03-11T10:17:13;1.43;;;0.77;;
40955;SDS011;26687;48.254;11.454;2023-03-11T10:20:20;1.20;;;0.60;;
40955;SDS011;26687;48.254;11.454;2023-03-11T10:26:28;1.17;;;0.50;;
40955;SDS011;26687;48.254;11.454;2023-03-11T10:29:37;1.13;;;0.57;;
40955;SDS011;26687;48.254;11.454;2023-03-11T10:35:40;1.17;;;0.82;;
40955;SDS011;26687;48.254;11.454;2023-03-11T10:38:41;1.17;;;0.70;;
40955;SDS011;26687;48.254;11.454;2023-03-11T10:41:48;0.90;;;0.30;;
40955;SDS011;26687;48.254;11.454;2023-03-11T10:44:49;1.35;;;0.45;;
40955;SDS011;26687;48.254;11.454;2023-03-11T10:47:49;1.43;;;0.80;;
40955;SDS011;26687;48.254;11.454;2023-03-11T10:50:57;1.33;;;0.80;;
40955;SDS011;26687;48.254;11.454;2023-03-11T10:54:00;1.80;;;0.77;;
40955;SDS011;26687;48.254;11.454;2023-03-11T10:57:02;0.90;;;0.50;;
40955;SDS011;26687;48.254;11.454;2023-03-11T11:00:04;0.93;;;0.50;;
40955;SDS011;26687;48.254;11.454;2023-03-11T11:03:20;0.88;;;0.38;;
40955;SDS011;26687;48.254;11.454;2023-03-11T11:06:28;1.15;;;0.60;;
40955;SDS011;26687;48.254;11.454;2023-03-11T11:09:28;0.70;;;0.40;;
40955;SDS011;26687;48.254;11.454;2023-03-11T11:12:31;2.53;;;0.50;;
40955;SDS011;26687;48.254;11.454;2023-03-11T11:15:32;0.95;;;0.40;;
40955;SDS011;26687;48.254;11.454;2023-03-11T11:18:41;0.95;;;0.50;;
40955;SDS011;26687;48.254;11.454;2023-03-11T11:21:42;1.65;;;0.50;;
40955;SDS011;26687;48.254;11.454;2023-03-11T11:24:48;2.25;;;0.77;;
40955;SDS011;26687;48.254;11.454;2023-03-11T11:27:54;0.75;;;0.60;;
40955;SDS011;26687;48.254;11.454;2023-03-11T11:31:02;1.45;;;0.60;;
40955;SDS011;26687;48.254;11.454;2023-03-11T11:34:02;0.85;;;0.57;;
40955;SDS011;26687;48.254;11.454;2023-03-11T11:37:05;0.73;;;0.70;;
40955;SDS011;26687;48.254;11.454;2023-03-11T11:43:17;3.47;;;0.93;;
40955;SDS011;26687;48.254;11.454;2023-03-11T11:46:19;0.93;;;0.80;;
40955;SDS011;26687;48.254;11.454;2023-03-11T11:49:21;1.67;;;0.60;;
40955;SDS011;26687;48.254;11.454;2023-03-11T11:52:23;2.57;;;0.87;;
40955;SDS011;26687;48.254;11.454;2023-03-11T11:55:25;1.23;;;0.52;;
40955;SDS011;26687;48.254;11.454;2023-03-11T11:58:25;1.42;;;0.80;;
40955;SDS011;26687;48.254;11.454;2023-03-11T12:04:57;1.10;;;0.60;;
40955;SDS011;26687;48.254;11.454;2023-03-11T12:11:13;1.20;;;0.60;;
40955;SDS011;26687;48.254;11.454;2023-03-11T12:17:34;1.08;;;0.70;;
40955;SDS011;26687;48.254;11.454;2023-03-11T12:24:49;1.17;;;0.55;;
40955;SDS011;26687;48.254;11.454;2023-03-11T12:27:28;1.27;;;0.60;;
40955;SDS011;26687;48.254;11.454;2023-03-11T12:30:32;0.93;;;0.50;;
40955;SDS011;26687;48.254;11.454;2023-03-11T12:33:33;0.63;;;0.40;;
40955;SDS011;26687;48.254;11.454;2023-03-11T12:36:35;1.08;;;0.40;;
40955;SDS011;26687;48.254;11.454;2023-03-11T12:39:36;0.47;;;0.30;;
40955;SDS011;26687;48.254;11.454;2023-03-11T12:42:39;0.93;;;0.50;;
40955;SDS011;26687;48.254;11.454;2023-03-11T12:45:48;0.80;;;0.50;;
40955;SDS011;26687;48.254;11.454;2023-03-11T12:48:49;0.57;;;0.30;;
40955;SDS011;26687;48.254;11.454;2023-03-11T12:52:15;0.77;;;0.50;;
40955;SDS011;26687;48.254;11.454;2023-03-11T12:58:33;1.55;;;0.68;;
40955;SDS011;26687;48.254;11.454;2023-03-11T13:11:25;0.82;;;0.50;;
40955;SDS011;26687;48.254;11.454;2023-03-11T13:14:30;0.90;;;0.50;;
40955;SDS011;26687;48.254;11.454;2023-03-11T13:17:31;0.50;;;0.43;;
40955;SDS011;26687;48.254;11.454;2023-03-11T13:23:41;1.48;;;0.57;;
40955;SDS011;26687;48.254;11.454;2023-03-11T13:26:42;0.80;;;0.30;;
40955;SDS011;26687;48.254;11.454;2023-03-11T13:36:04;0.98;;;0.70;;
40955;SDS011;26687;48.254;11.454;2023-03-11T13:42:29;1.48;;;0.60;;
40955;SDS011;26687;48.254;11.454;2023-03-11T13:45:34;1.92;;;1.40;;
40955;SDS011;26687;48.254;11.454;2023-03-11T13:48:35;0.95;;;0.50;;
40955;SDS011;26687;48.254;11.454;2023-03-11T13:51:42;0.98;;;0.82;;
40955;SDS011;26687;48.254;11.454;2023-03-11T13:54:45;1.23;;;0.70;;
40955;SDS011;26687;48.254;11.454;2023-03-11T13:57:55;0.98;;;0.45;;
40955;SDS011;26687;48.254;11.454;2023-03-11T14:00:57;0.77;;;0.50;;
40955;SDS011;26687;48.254;11.454;2023-03-11T14:03:57;1.00;;;0.60;;
40955;SDS011;26687;48.254;11.454;2023-03-11T14:06:58;0.82;;;0.45;;
40955;SDS011;26687;48.254;11.454;2023-03-11T14:13:20;1.23;;;0.60;;
40955;SDS011;26687;48.254;11.454;2023-03-11T14:16:30;1.40;;;0.77;;
40955;SDS011;26687;48.254;11.454;2023-03-11T14:19:34;2.95;;;2.25;;
40955;SDS011;26687;48.254;11.454;2023-03-11T14:22:35;1.70;;;1.30;;
40955;SDS011;26687;48.254;11.454;2023-03-11T14:25:36;2.03;;;0.83;;
40955;SDS011;26687;48.254;11.454;2023-03-11T14:28:38;1.20;;;0.63;;
40955;SDS011;26687;48.254;11.454;2023-03-11T14:31:40;2.10;;;0.60;;
40955;SDS011;26687;48.254;11.454;2023-03-11T14:34:42;1.20;;;0.80;;
40955;SDS011;26687;48.254;11.454;2023-03-11T14:37:44;1.90;;;0.70;;
40955;SDS011;26687;48.254;11.454;2023-03-11T14:40:45;1.10;;;0.60;;
40955;SDS011;26687;48.254;11.454;2023-03-11T14:43:49;0.68;;;0.43;;
40955;SDS011;26687;48.254;11.454;2023-03-11T14:46:50;1.05;;;0.50;;
40955;SDS011;26687;48.254;11.454;2023-03-11T14:49:51;2.55;;;0.70;;
40955;SDS011;26687;48.254;11.454;2023-03-11T14:52:59;0.98;;;0.60;;
40955;SDS011;26687;48.254;11.454;2023-03-11T14:56:02;1.48;;;1.00;;
40955;SDS011;26687;48.254;11.454;2023-03-11T15:05:18;1.95;;;0.75;;
40955;SDS011;26687;48.254;11.454;2023-03-11T15:08:20;1.23;;;0.70;;
40955;SDS011;26687;48.254;11.454;2023-03-11T15:11:22;1.33;;;0.90;;
40955;SDS011;26687;48.254;11.454;2023-03-11T15:14:25;2.45;;;1.20;;
40955;SDS011;26687;48.254;11.454;2023-03-11T15:17:26;2.53;;;1.10;;
40955;SDS011;26687;48.254;11.454;2023-03-11T15:20:32;0.77;;;0.60;;
40955;SDS011;26687;48.254;11.454;2023-03-11T15:23:33;2.17;;;0.80;;
40955;SDS011;26687;48.254;11.454;2023-03-11T15:26:34;1.00;;;0.90;;
40955;SDS011;26687;48.254;11.454;2023-03-11T15:29:34;0.90;;;0.50;;
40955;SDS011;26687;48.254;11.454;2023-03-11T15:32:39;2.08;;;1.00;;
40955;SDS011;26687;48.254;11.454;2023-03-11T15:35:46;1.35;;;0.80;;
40955;SDS011;26687;48.254;11.454;2023-03-11T15:38:46;4.93;;;1.00;;
40955;SDS011;26687;48.254;11.454;2023-03-11T15:41:53;1.45;;;0.60;;
40955;SDS011;26687;48.254;11.454;2023-03-11T15:45:18;2.03;;;0.80;;
40955;SDS011;26687;48.254;11.454;2023-03-11T15:48:16;1.98;;;0.82;;
40955;SDS011;26687;48.254;11.454;2023-03-11T15:51:17;1.25;;;0.90;;
40955;SDS011;26687;48.254;11.454;2023-03-11T15:54:18;1.38;;;0.82;;
40955;SDS011;26687;48.254;11.454;2023-03-11T15:57:22;1.00;;;0.90;;
40955;SDS011;26687;48.254;11.454;2023-03-11T16:00:23;2.15;;;0.88;;
40955;SDS011;26687;48.254;11.454;2023-03-11T16:03:23;1.47;;;0.90;;
40955;SDS011;26687;48.254;11.454;2023-03-11T16:06:24;2.07;;;0.90;;
40955;SDS011;26687;48.254;11.454;2023-03-11T16:09:24;0.98;;;0.88;;
40955;SDS011;26687;48.254;11.454;2023-03-11T16:12:24;1.63;;;0.80;;
40955;SDS011;26687;48.254;11.454;2023-03-11T16:15:25;1.00;;;0.80;;
40955;SDS011;26687;48.254;11.454;2023-03-11T16:18:27;2.10;;;0.85;;
40955;SDS011;26687;48.254;11.454;2023-03-11T16:21:30;1.63;;;1.02;;
40955;SDS011;26687;48.254;11.454;2023-03-11T16:24:32;1.10;;;0.93;;
40955;SDS011;26687;48.254;11.454;2023-03-11T16:27:32;1.13;;;0.90;;
40955;SDS011;26687;48.254;11.454;2023-03-11T16:30:33;1.10;;;0.73;;
40955;SDS011;26687;48.254;11.454;2023-03-11T16:33:34;1.58;;;0.80;;
40955;SDS011;26687;48.254;11.454;2023-03-11T16:36:34;2.33;;;1.10;;
40955;SDS011;26687;48.254;11.454;2023-03-11T16:39:34;1.80;;;1.07;;
40955;SDS011;26687;48.254;11.454;2023-03-11T16:42:34;0.80;;;0.70;;
40955;SDS011;26687;48.254;11.454;2023-03-11T16:45:34;1.70;;;0.95;;
40955;SDS011;26687;48.254;11.454;2023-03-11T16:48:35;1.20;;;0.90;;
40955;SDS011;26687;48.254;11.454;2023-03-11T16:51:35;1.15;;;1.05;;
40955;SDS011;26687;48.254;11.454;2023-03-11T16:54:36;1.23;;;0.95;;
40955;SDS011;26687;48.254;11.454;2023-03-11T16:57:36;1.95;;;1.00;;
40955;SDS011;26687;48.254;11.454;2023-03-11T17:00:37;2.40;;;1.10;;
40955;SDS011;26687;48.254;11.454;2023-03-11T17:03:38;1.30;;;1.02;;
40955;SDS011;26687;48.254;11.454;2023-03-11T17:06:39;1.17;;;0.82;;
40955;SDS011;26687;48.254;11.454;2023-03-11T17:09:39;1.73;;;1.00;;
40955;SDS011;26687;48.254;11.454;2023-03-11T17:12:39;1.20;;;1.10;;
40955;SDS011;26687;48.254;11.454;2023-03-11T17:15:39;1.70;;;1.27;;
40955;SDS011;26687;48.254;11.454;2023-03-11T17:18:43;2.20;;;1.40;;
40955;SDS011;26687;48.254;11.454;2023-03-11T17:21:43;2.10;;;1.23;;
40955;SDS011;26687;48.254;11.454;2023-03-11T17:24:43;2.37;;;1.50;;
40955;SDS011;26687;48.254;11.454;2023-03-11T17:27:43;1.70;;;1.20;;
40955;SDS011;26687;48.254;11.454;2023-03-11T17:30:44;1.13;;;1.03;;
40955;SDS011;26687;48.254;11.454;2023-03-11T17:33:44;1.20;;;1.10;;
40955;SDS011;26687;48.254;11.454;2023-03-11T17:36:44;1.67;;;1.00;;
40955;SDS011;26687;48.254;11.454;2023-03-11T17:39:44;2.70;;;1.30;;
40955;SDS011;26687;48.254;11.454;2023-03-11T17:42:44;1.27;;;0.90;;
40955;SDS011;26687;48.254;11.454;2023-03-11T17:45:44;1.58;;;1.05;;
40955;SDS011;26687;48.254;11.454;2023-03-11T17:48:45;1.10;;;0.80;;
40955;SDS011;26687;48.254;11.454;2023-03-11T17:51:46;1.27;;;1.00;;
40955;SDS011;26687;48.254;11.454;2023-03-11T17:54:46;1.60;;;0.97;;
40955;SDS011;26687;48.254;11.454;2023-03-11T17:57:46;1.70;;;1.20;;
40955;SDS011;26687;48.254;11.454;2023-03-11T18:00:46;1.13;;;0.93;;
40955;SDS011;26687;48.254;11.454;2023-03-11T18:03:47;2.15;;;1.50;;
40955;SDS011;26687;48.254;11.454;2023-03-11T18:06:47;2.13;;;1.50;;
40955;SDS011;26687;48.254;11.454;2023-03-11T18:09:49;3.23;;;2.43;;
40955;SDS011;26687;48.254;11.454;2023-03-11T18:12:49;2.30;;;1.77;;
40955;SDS011;26687;48.254;11.454;2023-03-11T18:15:56;2.25;;;1.45;;
40955;SDS011;26687;48.254;11.454;2023-03-11T18:18:57;2.55;;;1.70;;
40955;SDS011;26687;48.254;11.454;2023-03-11T18:21:57;2.63;;;1.10;;
40955;SDS011;26687;48.254;11.454;2023-03-11T18:24:57;3.22;;;1.67;;
40955;SDS011;26687;48.254;11.454;2023-03-11T18:27:57;1.43;;;1.00;;
40955;SDS011;26687;48.254;11.454;2023-03-11T18:31:07;1.50;;;1.20;;
40955;SDS011;26687;48.254;11.454;2023-03-11T18:34:08;1.70;;;1.05;;
40955;SDS011;26687;48.254;11.454;2023-03-11T18:37:12;1.30;;;1.20;;
40955;SDS011;26687;48.254;11.454;2023-03-11T18:40:12;1.42;;;1.23;;
40955;SDS011;26687;48.254;11.454;2023-03-11T18:43:13;1.35;;;1.20;;
40955;SDS011;26687;48.254;11.454;2023-03-11T18:46:14;1.20;;;1.00;;
40955;SDS011;26687;48.254;11.454;2023-03-11T18:49:14;2.90;;;2.30;;
40955;SDS011;26687;48.254;11.454;2023-03-11T18:52:15;2.10;;;1.90;;
40955;SDS011;26687;48.254;11.454;2023-03-11T18:55:15;3.00;;;2.33;;
40955;SDS011;26687;48.254;11.454;2023-03-11T18:58:15;7.43;;;5.77;;
40955;SDS011;26687;48.254;11.454;2023-03-11T19:01:16;3.25;;;2.53;;
40955;SDS011;26687;48.254;11.454;2023-03-11T19:04:18;12.66;;;6.20;;
40955;SDS011;26687;48.254;11.454;2023-03-11T19:07:18;3.60;;;2.50;;
40955;SDS011;26687;48.254;11.454;2023-03-11T19:10:18;1.80;;;1.48;;